ADDS METAR Data INFO
IDs: Format: Raw Decoded Include TAF

Data at: 0926 UTC 17 Oct 2017

KEKS 170915Z AUTO 18012KT 10SM CLR 04/M07 A3029 RMK AO2
KEKS 170855Z AUTO 18010KT 10SM CLR 04/M07 A3029 RMK AO2
KEKS 170835Z AUTO 18013G19KT 10SM CLR 05/M07 A3030 RMK AO2
KEKS 170815Z AUTO 16012KT 10SM CLR 04/M07 A3030 RMK AO2
KEKS 170755Z AUTO 18015G22KT 10SM CLR 05/M07 A3029 RMK AO2
KEKS 170735Z AUTO 17014G22KT 10SM CLR 06/M07 A3029 RMK AO2
KEKS 170715Z AUTO 16014G19KT 10SM CLR 06/M07 A3030 RMK AO2
KEKS 170655Z AUTO 17012KT 10SM CLR 05/M07 A3030 RMK AO2
KEKS 170635Z AUTO 18011KT 10SM CLR 05/M07 A3030 RMK AO2
KEKS 170615Z AUTO 18015G21KT 10SM CLR 06/M08 A3030 RMK AO2
KEKS 170555Z AUTO 17011KT 10SM CLR 05/M07 A3030 RMK AO2
KEKS 170535Z AUTO 17012KT 10SM CLR 05/M07 A3030 RMK AO2
KEKS 170515Z AUTO 17012KT 10SM CLR 06/M07 A3030 RMK AO2
KEKS 170455Z AUTO 19012KT 10SM CLR 07/M08 A3031 RMK AO2
KEKS 170435Z AUTO 19012G18KT 10SM CLR 08/M08 A3031 RMK AO2
KEKS 170415Z AUTO 18010KT 10SM CLR 07/M07 A3031 RMK AO2
KEKS 170355Z AUTO 18012G17KT 10SM CLR 08/M07 A3030 RMK AO2
KEKS 170335Z AUTO 18015KT 10SM CLR 09/M07 A3029 RMK AO2
KEKS 170315Z AUTO 17013KT 10SM CLR 09/M07 A3029 RMK AO2
KEKS 170255Z AUTO 18012KT 10SM CLR 09/M07 A3029 RMK AO2
KEKS 170235Z AUTO 17012KT 10SM CLR 10/M07 A3029 RMK AO2
KEKS 170215Z AUTO 18014KT 10SM CLR 11/M07 A3029 RMK AO2
KEKS 170155Z AUTO 18014G20KT 10SM CLR 12/M07 A3028 RMK AO2
KEKS 170135Z AUTO 17015G20KT 10SM CLR 12/M07 A3027 RMK AO2
KEKS 170115Z AUTO 16015G20KT 10SM CLR 13/M07 A3027 RMK AO2
KEKS 170055Z AUTO 16013G19KT 10SM CLR 13/M06 A3027 RMK AO2
KEKS 170035Z AUTO 16012KT 10SM CLR 13/M05 A3027 RMK AO2
KEKS 170015Z AUTO 17012G18KT 10SM CLR 15/M06 A3027 RMK AO2
KEKS 162355Z AUTO 17014G19KT 10SM CLR 16/M06 A3026 RMK AO2
KEKS 162335Z AUTO 17013KT 10SM CLR 17/M06 A3026 RMK AO2
KEKS 162315Z AUTO 18014KT 10SM CLR 18/M06 A3026 RMK AO2
KEKS 162255Z AUTO 17014G19KT 10SM CLR 18/M06 A3027 RMK AO2
KEKS 162235Z AUTO 18012G17KT 10SM CLR 19/M07 A3027 RMK AO2
KEKS 162215Z AUTO 17013KT 10SM CLR 18/M07 A3027 RMK AO2
KEKS 162155Z AUTO 16011G18KT 10SM CLR 19/M08 A3027 RMK AO2
KEKS 162135Z AUTO 16012KT 10SM CLR 19/M08 A3028 RMK AO2
KEKS 162115Z AUTO 18009KT 10SM CLR 18/M08 A3029 RMK AO2
KEKS 162055Z AUTO VRB06G12KT 130V200 10SM CLR 18/M08 A3030 RMK AO2
KEKS 162035Z AUTO 16008KT 10SM CLR 18/M09 A3030 RMK AO2
KEKS 162015Z AUTO 17008KT 10SM CLR 18/M09 A3031 RMK AO2
KEKS 161955Z AUTO 16008KT 10SM CLR 18/M09 A3032 RMK AO2
KEKS 161935Z AUTO 19007KT 10SM CLR 17/M10 A3033 RMK AO2
KEKS 161915Z AUTO 19007KT 10SM CLR 17/M09 A3033 RMK AO2
KEKS 161855Z AUTO 19008G13KT 10SM CLR 17/M10 A3034 RMK AO2
KEKS 161835Z AUTO 16008G13KT 10SM CLR 16/M09 A3035 RMK AO2
KEKS 161815Z AUTO 17010G16KT 10SM CLR 16/M08 A3035 RMK AO2
KEKS 161755Z AUTO 18012G18KT 10SM CLR 15/M07 A3035 RMK AO2
KEKS 161735Z AUTO 18016KT 10SM CLR 14/M07 A3035 RMK AO2
KEKS 161715Z AUTO 17012KT 10SM CLR 13/M06 A3037 RMK AO2
KEKS 161655Z AUTO 18014KT 10SM CLR 11/M06 A3037 RMK AO2
KEKS 161635Z AUTO 17011KT 10SM CLR 10/M05 A3038 RMK AO2
KEKS 161615Z AUTO 18014KT 10SM CLR 08/M05 A3039 RMK AO2
KEKS 161555Z AUTO 18009KT 10SM CLR 07/M05 A3039 RMK AO2
KEKS 161535Z AUTO 16010KT 10SM CLR 06/M05 A3039 RMK AO2
KEKS 161515Z AUTO 17009KT 10SM CLR 05/M06 A3039 RMK AO2
KEKS 161455Z AUTO 14008KT 10SM CLR 02/M06 A3039 RMK AO2
KEKS 161435Z AUTO 12007KT 10SM CLR 01/M06 A3038 RMK AO2
KEKS 161415Z AUTO 11006KT 10SM CLR 01/M07 A3037 RMK AO2
KEKS 161355Z AUTO 18012KT 10SM CLR 02/M06 A3036 RMK AO2
KEKS 161335Z AUTO VRB04KT 10SM CLR M01/M07 A3036 RMK AO2
KEKS 161315Z AUTO 18008KT 10SM CLR 01/M07 A3036 RMK AO2
KEKS 161255Z AUTO 19010KT 10SM CLR 02/M06 A3035 RMK AO2
KEKS 161235Z AUTO 19009KT 10SM CLR 03/M07 A3035 RMK AO2
KEKS 161215Z AUTO 15008G14KT 10SM CLR 03/M07 A3035 RMK AO2
KEKS 161155Z AUTO 18012KT 10SM CLR 03/M07 A3034 RMK AO2
KEKS 161135Z AUTO 18013G18KT 10SM CLR 03/M06 A3034 RMK AO2
KEKS 161115Z AUTO 19012KT 10SM CLR 03/M06 A3034 RMK AO2
KEKS 161055Z AUTO 18013KT 10SM CLR 03/M07 A3034 RMK AO2
KEKS 161035Z AUTO 19012KT 10SM CLR 03/M07 A3034 RMK AO2
KEKS 161015Z AUTO 18013KT 10SM CLR 03/M07 A3034 RMK AO2
KEKS 160955Z AUTO 18013KT 10SM CLR 04/M07 A3033 RMK AO2
KEKS 160935Z AUTO 17013G20KT 10SM CLR 04/M07 A3033 RMK AO2
KEKS 160915Z AUTO 18010G21KT 10SM CLR 04/M07 A3034 RMK AO2
KEKS 160855Z AUTO 20016G21KT 10SM CLR 04/M06 A3034 RMK AO2
KEKS 160835Z AUTO 19014G21KT 10SM CLR 05/M07 A3034 RMK AO2
KEKS 160815Z AUTO 18014KT 10SM CLR 05/M06 A3034 RMK AO2
KEKS 160755Z AUTO 19016G21KT 10SM CLR 05/M06 A3034 RMK AO2
KEKS 160735Z AUTO 19014G20KT 10SM CLR 05/M06 A3034 RMK AO2
KEKS 160715Z AUTO 19016KT 10SM CLR 06/M05 A3034 RMK AO2
KEKS 160655Z AUTO 20016KT 10SM CLR 05/M05 A3035 RMK AO2
KEKS 160635Z AUTO 21013KT 10SM CLR 05/M05 A3035 RMK AO2
KEKS 160615Z AUTO 20015KT 10SM CLR 06/M05 A3035 RMK AO2
KEKS 160555Z AUTO 21011KT 10SM CLR 06/M05 A3036 RMK AO2
KEKS 160535Z AUTO 20013KT 10SM CLR 06/M04 A3035 RMK AO2
KEKS 160515Z AUTO 19014KT 10SM CLR 06/M04 A3036 RMK AO2
KEKS 160455Z AUTO 19014G19KT 10SM CLR 07/M04 A3036 RMK AO2
KEKS 160435Z AUTO 19011KT 10SM CLR 05/M03 A3036 RMK AO2
KEKS 160415Z AUTO 19011KT 10SM CLR 05/M04 A3037 RMK AO2
KEKS 160355Z AUTO 20013KT 10SM CLR 06/M04 A3037 RMK AO2
KEKS 160335Z AUTO 18011G16KT 10SM CLR 06/M04 A3037 RMK AO2
KEKS 160315Z AUTO 19015G25KT 10SM CLR 08/M05 A3037 RMK AO2
KEKS 160255Z AUTO 19016KT 10SM CLR 08/M04 A3037 RMK AO2
KEKS 160235Z AUTO 18014G19KT 10SM CLR 08/M04 A3038 RMK AO2
KEKS 160215Z AUTO 19016KT 10SM CLR 09/M04 A3038 RMK AO2
KEKS 160155Z AUTO 18015KT 10SM CLR 10/M04 A3038 RMK AO2
KEKS 160135Z AUTO 17013G25KT 10SM CLR 10/M04 A3038 RMK AO2
KEKS 160115Z AUTO 16015KT 10SM CLR 09/M03 A3037 RMK AO2
KEKS 160055Z AUTO 17013G19KT 10SM CLR 10/M03 A3037 RMK AO2
KEKS 160035Z AUTO 16014KT 10SM CLR 10/M03 A3037 RMK AO2
KEKS 160015Z AUTO 17015KT 10SM CLR 11/M03 A3037 RMK AO2
KEKS 152355Z AUTO 18017KT 10SM CLR 12/M03 A3037 RMK AO2
KEKS 152335Z AUTO 18020G26KT 10SM CLR 13/M03 A3038 RMK AO2
KEKS 152315Z AUTO 18020G26KT 10SM CLR 14/M03 A3038 RMK AO2
KEKS 152255Z AUTO 18017G23KT 10SM CLR 14/M03 A3038 RMK AO2
KEKS 152235Z AUTO 18017KT 10SM CLR 15/M03 A3038 RMK AO2
KEKS 152215Z AUTO 18017G22KT 10SM CLR 15/M03 A3039 RMK AO2
KEKS 152155Z AUTO 18018G23KT 10SM CLR 15/M03 A3039 RMK AO2
KEKS 152135Z AUTO 18016G24KT 10SM CLR 15/M03 A3039 RMK AO2